aviador You're here:

PAOH Decoded Metar

HOONAH in AK, USA
Report Time2018-04-26 12:56:00
UTC Time2018-04-26 13:22:06
Flight Rules vfr VFR
WindCalm
Visibility9999 m
Phenomena:N/A
Clouds:Few 030 Hf
Overcast 035 Hf
Ceiling3,500 ft
Temp04°C (ISA -11)
Dew Point04°C (100% RH)
AAT2.7°C
QNH1023 hPa
Density Alt-1,526 ft
Elevation30 ft
Report Wrong Elevation
Raw Report
PAOH 261256Z AUTO 00000KT 10SM FEW030 OVC035 04/04 A3021 RMK AO2
RAB26E44 SLP233 P0000 T00440044=

Extra information for PAOH:More info

Metar Taf Metar & Taf Last 4 Metars F.Rules Stats Wind Profile Meteogram Temp Stats Airport Information Weather charts Add Link Nearby VenuesMetar ALERT Operation Metar Decoded Social comments

AIRNAV info for PAOH